Time;durP1;ratioP1;P1;durP2;ratioP2;P2;SDS_P1;SDS_P2;PMS_P1;PMS_P2;Temp;Humidity;BMP_temperature;BMP_pressure;BME280_temperature;BME280_humidity;BME280_pressure;Samples;Min_cycle;Max_cycle;Signal;HPM_P1;HPM_P2
2023/02/07 00:34:15;;;;;;;11.05;6.28;;;;;;;16.98;51.27;104090.34;6156057;23;20032;-86
2023/02/07 01:03:29;;;;;;;11.98;6.35;;;;;;;16.91;50.89;104078.78;6153665;23;20711;-85
2023/02/07 06:19:59;;;;;;;4.70;2.60;;;;;;;16.59;50.10;104046.09;6151676;23;20040;-85
2023/02/07 06:23:03;;;;;;;4.20;2.33;;;;;;;16.59;50.36;104061.69;6181251;23;20005;-86
2023/02/07 06:28:46;;;;;;;5.05;2.40;;;;;;;16.60;50.15;104055.69;6134024;23;20037;-86
2023/02/07 06:40:00;;;;;;;3.97;2.33;;;;;;;16.58;50.37;104060.81;6181263;23;20017;-85
2023/02/07 07:22:00;;;;;;;6.03;3.10;;;;;;;16.92;50.49;104105.69;6182109;23;20110;-83
2023/02/07 07:31:38;;;;;;;6.18;2.90;;;;;;;16.88;50.34;104109.88;6182021;23;20032;-87
2023/02/07 07:53:24;;;;;;;6.65;3.55;;;;;;;16.90;49.97;104113.44;6145744;23;20002;-86
2023/02/07 07:59:30;;;;;;;7.32;2.90;;;;;;;16.90;50.05;104113.44;6150434;23;20046;-86
2023/02/07 08:04:57;;;;;;;5.32;3.30;;;;;;;16.90;49.80;104116.03;6169740;23;20064;-86
2023/02/07 08:11:24;;;;;;;4.45;2.72;;;;;;;16.90;49.81;104113.44;6179778;23;20049;-86
2023/02/07 08:20:18;;;;;;;5.05;3.00;;;;;;;16.90;49.66;104123.84;6156509;23;20029;-86
2023/02/07 08:22:43;;;;;;;6.53;2.95;;;;;;;16.91;49.58;104123.03;6126410;23;20025;-86
2023/02/07 08:34:10;;;;;;;5.63;3.35;;;;;;;16.93;49.22;104117.91;6154020;23;20021;-86
2023/02/07 08:43:04;;;;;;;5.80;2.92;;;;;;;17.14;48.80;104131.88;6149904;23;20049;-86
2023/02/07 08:45:47;;;;;;;4.45;2.90;;;;;;;17.16;48.66;104109.41;6060301;23;20014;-84
2023/02/07 08:52:19;;;;;;;3.42;2.22;;;;;;;17.24;48.43;104115.81;6061203;23;20025;-85
2023/02/07 08:55:01;;;;;;;4.68;2.92;;;;;;;17.24;48.46;104107.13;6060567;23;20019;-85
2023/02/07 08:57:27;;;;;;;4.55;2.60;;;;;;;17.26;48.25;104115.91;6059335;23;20003;-86
2023/02/07 09:00:30;;;;;;;4.55;2.63;;;;;;;17.26;48.22;104116.78;6034543;23;20034;-85
2023/02/07 09:06:27;;;;;;;3.95;2.45;;;;;;;17.26;48.06;104113.28;6061178;23;20053;-84
2023/02/07 09:08:52;;;;;;;4.00;2.38;;;;;;;17.28;48.21;104115.13;6033454;23;20007;-86
2023/02/07 09:11:18;;;;;;;5.53;2.70;;;;;;;17.28;48.06;104114.25;6030768;23;20011;-86
2023/02/07 09:13:45;;;;;;;5.03;2.78;;;;;;;17.27;48.18;104113.38;6032509;23;20046;-84
2023/02/07 09:16:13;;;;;;;4.18;2.58;;;;;;;17.27;48.26;104102.97;6052590;23;20061;-85
2023/02/07 09:25:23;;;;;;;4.65;2.47;;;;;;;17.28;48.19;104104.72;6148810;23;20016;-85
2023/02/07 09:27:49;;;;;;;4.35;2.55;;;;;;;17.28;48.11;104101.25;6119375;23;20034;-84
2023/02/07 09:30:15;;;;;;;4.30;2.50;;;;;;;17.28;48.17;104106.44;6123100;23;20029;-84
2023/02/07 09:36:11;;;;;;;4.35;2.47;;;;;;;17.28;48.15;104104.72;6178862;23;20010;-85
2023/02/07 09:38:38;;;;;;;4.10;2.40;;;;;;;17.29;47.95;104110.84;6155320;23;20017;-86
2023/02/07 09:41:39;;;;;;;4.57;2.60;;;;;;;17.28;48.24;104109.94;6152594;23;20006;-85
2023/02/07 09:57:48;;;;;;;3.85;2.30;;;;;;;17.26;48.19;104113.28;6173541;23;20040;-89
2023/02/07 10:00:36;;;;;;;3.83;2.30;;;;;;;17.27;48.34;104129.00;6123725;23;20010;-90
2023/02/07 10:03:40;;;;;;;3.70;2.65;;;;;;;17.28;48.15;104120.34;6150798;23;20063;-91
2023/02/07 10:19:41;;;;;;;4.40;2.53;;;;;;;17.27;48.17;104130.72;6175580;23;20045;-86
2023/02/07 10:28:51;;;;;;;2.97;2.25;;;;;;;17.21;48.28;104133.03;6175580;23;20032;-88
2023/02/07 10:31:19;;;;;;;3.47;2.50;;;;;;;17.16;48.03;104132.84;6148336;23;20092;-86
2023/02/07 10:34:13;;;;;;;3.30;2.40;;;;;;;17.18;48.24;104140.69;6124269;23;20055;-84
2023/02/07 10:36:48;;;;;;;4.17;2.77;;;;;;;17.17;48.18;104141.53;6174180;23;20028;-84
2023/02/07 10:42:36;;;;;;;4.35;2.70;;;;;;;17.15;48.26;104132.75;6184016;23;20049;-86
2023/02/07 10:54:07;;;;;;;2.72;2.08;;;;;;;17.14;48.41;104152.69;6132699;23;20064;-85
2023/02/07 10:56:54;;;;;;;3.30;2.50;;;;;;;17.15;47.95;104153.56;6102875;23;20002;-83
2023/02/07 10:59:47;;;;;;;4.45;2.30;;;;;;;17.13;48.15;104150.91;6101511;23;20006;-86
2023/02/07 11:02:31;;;;;;;4.00;2.50;;;;;;;17.13;48.12;104160.41;6102671;23;20041;-85
2023/02/07 11:05:20;;;;;;;3.70;2.55;;;;;;;17.13;48.06;104152.63;6102564;23;20010;-85
2023/02/07 11:07:58;;;;;;;3.17;2.33;;;;;;;17.12;48.31;104151.72;6110360;23;20036;-84
2023/02/07 11:10:46;;;;;;;4.20;2.45;;;;;;;17.12;48.03;104161.25;6102621;23;20009;-81
2023/02/07 11:13:15;;;;;;;4.05;2.50;;;;;;;17.12;48.20;104162.13;6128315;23;20013;-84
2023/02/07 11:16:05;;;;;;;4.50;2.80;;;;;;;17.12;48.09;104148.25;6128370;23;20005;-85
2023/02/07 11:18:37;;;;;;;4.10;2.65;;;;;;;17.12;48.25;104148.25;6102477;23;20005;-85
2023/02/07 11:21:31;;;;;;;3.60;2.80;;;;;;;17.11;47.96;104149.94;6102387;23;20113;-85
2023/02/07 11:24:02;;;;;;;3.35;2.33;;;;;;;17.11;48.21;104144.72;6088441;23;20158;-84
2023/02/07 11:26:29;;;;;;;4.00;2.40;;;;;;;17.11;48.15;104146.44;6101944;23;20006;-82
2023/02/07 11:29:06;;;;;;;3.45;2.30;;;;;;;17.11;48.05;104144.72;6078641;23;20036;-84
2023/02/07 11:31:34;;;;;;;4.72;2.53;;;;;;;17.12;48.12;104148.25;6102075;23;20006;-84
2023/02/07 11:34:09;;;;;;;3.63;2.70;;;;;;;17.11;48.14;104134.31;6102104;23;20008;-86
2023/02/07 11:36:35;;;;;;;3.33;2.40;;;;;;;17.11;47.82;104134.31;6102634;23;20093;-85
2023/02/07 11:39:00;;;;;;;3.58;2.22;;;;;;;17.11;48.04;104131.72;6128339;23;20319;-84
2023/02/07 11:41:30;;;;;;;3.42;2.53;;;;;;;17.11;48.05;104128.22;6054464;23;20018;-84
2023/02/07 11:43:59;;;;;;;3.65;2.53;;;;;;;17.11;48.05;104115.22;6101985;23;20000;-84
2023/02/07 11:46:42;;;;;;;3.28;2.22;;;;;;;17.11;48.21;104115.22;6102311;23;20001;-84
2023/02/07 11:49:33;;;;;;;3.00;2.50;;;;;;;17.11;47.85;104105.69;6102025;23;20423;-83
2023/02/07 11:52:01;;;;;;;3.60;2.75;;;;;;;17.11;47.84;104107.41;6128137;23;20125;-83
2023/02/07 11:54:28;;;;;;;3.10;2.40;;;;;;;17.11;47.93;104107.41;6125817;23;20033;-85
2023/02/07 11:57:11;;;;;;;4.20;2.30;;;;;;;17.11;47.87;104104.81;6126555;23;20065;-85
2023/02/07 11:59:46;;;;;;;3.00;2.25;;;;;;;17.11;47.83;104099.59;6151140;23;20021;-82
2023/02/07 12:02:20;;;;;;;3.58;2.42;;;;;;;17.11;47.46;104102.22;6127971;23;20174;-85
2023/02/07 12:04:45;;;;;;;3.63;2.53;;;;;;;17.10;47.78;104092.63;6126784;23;20391;-85
2023/02/07 12:07:24;;;;;;;4.32;2.65;;;;;;;17.10;47.70;104087.44;6128112;23;20002;-86
2023/02/07 12:10:00;;;;;;;2.70;2.15;;;;;;;17.13;47.84;104095.38;6150869;23;20084;-81
2023/02/07 12:12:41;;;;;;;2.92;2.22;;;;;;;17.13;47.96;104084.94;6126098;23;20017;-84
2023/02/07 12:15:32;;;;;;;2.72;2.33;;;;;;;17.14;47.79;104085.03;6127922;23;20006;-84
2023/02/07 12:18:22;;;;;;;3.25;2.25;;;;;;;17.17;47.73;104086.88;6127795;23;20009;-84
2023/02/07 12:20:57;;;;;;;3.20;2.22;;;;;;;17.17;47.58;104077.34;6126205;23;20493;-85
2023/02/07 12:23:31;;;;;;;3.35;2.30;;;;;;;17.20;47.67;104087.00;6126285;23;20016;-82
2023/02/07 12:26:18;;;;;;;2.90;2.10;;;;;;;17.22;47.71;104085.34;6127639;23;20435;-81
2023/02/07 12:29:05;;;;;;;4.10;2.22;;;;;;;17.23;47.64;104080.22;6127825;23;20080;-82
2023/02/07 12:32:00;;;;;;;2.70;2.20;;;;;;;17.25;47.59;104085.50;6150604;23;20327;-81
2023/02/07 12:34:35;;;;;;;2.53;1.90;;;;;;;17.26;47.47;104088.16;6089199;23;20072;-83
2023/02/07 12:37:19;;;;;;;3.05;2.17;;;;;;;17.27;47.45;104078.66;6126264;23;20002;-82
2023/02/07 12:39:55;;;;;;;2.78;1.83;;;;;;;17.28;47.43;104078.69;6126324;23;20005;-83
2023/02/07 12:42:45;;;;;;;2.55;1.77;;;;;;;17.31;47.26;104071.84;6126230;23;20009;-83
2023/02/07 12:45:17;;;;;;;3.22;2.15;;;;;;;17.32;47.18;104082.34;6150893;23;20002;-82
2023/02/07 12:47:55;;;;;;;2.70;2.03;;;;;;;17.34;47.38;104072.88;6150849;23;20013;-82
2023/02/07 12:50:48;;;;;;;2.85;1.90;;;;;;;17.35;47.04;104072.03;6153269;23;20006;-82
2023/02/07 12:53:39;;;;;;;3.00;2.13;;;;;;;17.38;46.99;104073.91;6141312;23;20046;-83
2023/02/07 12:56:16;;;;;;;2.95;1.67;;;;;;;17.37;47.02;104066.91;6104382;23;20006;-86
2023/02/07 12:59:26;;;;;;;2.40;2.05;;;;;;;17.36;47.03;104065.13;6164639;23;20010;-84
2023/02/07 13:02:10;;;;;;;2.53;1.88;;;;;;;17.35;47.07;104071.16;6039833;23;20007;-86
2023/02/07 13:05:06;;;;;;;3.28;2.10;;;;;;;17.34;47.11;104064.19;6040440;23;20007;-85
2023/02/07 13:07:57;;;;;;;2.58;1.83;;;;;;;17.34;47.42;104062.47;6098135;23;20028;-84
2023/02/07 13:11:00;;;;;;;2.40;1.90;;;;;;;17.33;47.15;104058.06;6151821;23;20334;-85
2023/02/07 13:14:05;;;;;;;3.50;2.20;;;;;;;17.34;47.02;104061.59;6063394;23;20009;-84
2023/02/07 13:16:45;;;;;;;2.45;1.92;;;;;;;17.34;47.34;104056.38;6121016;23;20006;-83
2023/02/07 13:19:15;;;;;;;2.58;1.90;;;;;;;17.34;47.06;104058.97;6126581;23;20033;-84
2023/02/07 13:21:52;;;;;;;3.15;2.17;;;;;;;17.33;47.10;104054.56;6151041;23;20006;-85
2023/02/07 13:24:22;;;;;;;4.05;2.00;;;;;;;17.33;47.19;104052.84;6128035;23;20068;-83
2023/02/07 13:26:54;;;;;;;2.78;2.00;;;;;;;17.33;46.98;104046.78;6126279;23;20096;-83
2023/02/07 13:29:22;;;;;;;2.75;2.05;;;;;;;17.35;46.94;104045.13;6127305;23;20008;-85
2023/02/07 13:32:00;;;;;;;2.88;2.00;;;;;;;17.33;47.04;104038.97;6127666;23;20008;-82
2023/02/07 13:34:52;;;;;;;2.83;2.13;;;;;;;17.33;47.14;104039.84;6152313;23;20037;-83
2023/02/07 13:37:21;;;;;;;2.97;1.98;;;;;;;17.34;47.17;104035.56;6127322;23;20013;-84
2023/02/07 13:40:12;;;;;;;2.38;1.90;;;;;;;17.33;47.18;104036.34;6128082;23;20014;-86
2023/02/07 13:42:48;;;;;;;2.28;1.75;;;;;;;17.32;47.29;104030.28;6152700;23;20411;-84
2023/02/07 13:45:36;;;;;;;2.53;2.05;;;;;;;17.33;47.15;104032.03;6152394;23;20006;-83
2023/02/07 13:48:40;;;;;;;2.75;1.90;;;;;;;17.32;47.47;104025.06;6152040;23;20009;-84
2023/02/07 13:51:28;;;;;;;2.72;2.13;;;;;;;17.31;47.30;104028.50;6129210;23;20041;-82
2023/02/07 13:54:27;;;;;;;2.22;1.70;;;;;;;17.32;47.27;104024.19;6128692;23;20022;-82
2023/02/07 14:00:04;;;;;;;3.53;2.10;;;;;;;17.30;47.20;104018.91;6128865;23;20407;-82
2023/02/07 14:02:31;;;;;;;2.28;1.90;;;;;;;17.30;47.24;104012.81;6103125;23;20446;-82
2023/02/07 14:05:10;;;;;;;3.20;1.90;;;;;;;17.28;47.01;104016.22;6127363;23;20017;-82
2023/02/07 14:07:38;;;;;;;2.33;1.77;;;;;;;17.30;47.42;104025.81;6102327;23;20106;-83
2023/02/07 14:10:05;;;;;;;2.58;1.90;;;;;;;17.28;47.59;104023.16;6127143;23;20010;-81
2023/02/07 14:12:34;;;;;;;3.17;2.00;;;;;;;17.28;47.14;104021.44;6128652;23;20061;-81
2023/02/07 14:15:33;;;;;;;3.50;2.20;;;;;;;17.28;46.89;104017.94;6102639;23;20033;-84
2023/02/07 14:18:01;;;;;;;2.85;1.98;;;;;;;17.27;47.17;104014.47;6080064;23;20001;-84
2023/02/07 14:20:33;;;;;;;3.33;2.03;;;;;;;17.27;47.23;104010.97;6127084;23;20017;-85
2023/02/07 14:22:58;;;;;;;2.33;1.48;;;;;;;17.26;47.16;104011.78;6103001;23;20010;-84
2023/02/07 14:25:32;;;;;;;2.20;1.80;;;;;;;17.27;47.03;104021.38;6128500;23;20040;-82
2023/02/07 14:28:17;;;;;;;2.72;1.90;;;;;;;17.25;46.98;104023.91;6102552;23;20378;-84
2023/02/07 14:30:45;;;;;;;2.60;1.88;;;;;;;17.25;47.05;104026.50;6102902;23;20005;-85
2023/02/07 14:33:10;;;;;;;2.25;1.75;;;;;;;17.25;47.21;104017.81;6102444;23;20014;-83
2023/02/07 14:36:11;;;;;;;2.42;2.00;;;;;;;17.23;47.01;104022.97;6102706;23;20454;-82
2023/02/07 14:38:44;;;;;;;2.70;1.80;;;;;;;17.22;47.11;104018.59;6097829;23;20056;-82
2023/02/07 14:41:15;;;;;;;2.50;1.85;;;;;;;17.22;46.99;104021.19;6078803;23;20019;-83
2023/02/07 14:43:51;;;;;;;2.55;1.80;;;;;;;17.22;47.11;104020.28;6127012;23;20006;-82
2023/02/07 14:46:37;;;;;;;2.33;1.80;;;;;;;17.22;47.33;104020.28;6126804;23;20350;-81
2023/02/07 14:49:11;;;;;;;2.60;1.80;;;;;;;17.22;46.97;104020.28;6128578;23;20006;-82
2023/02/07 14:51:36;;;;;;;3.15;1.80;;;;;;;17.20;46.89;104022.84;6126650;23;20447;-83
2023/02/07 14:54:17;;;;;;;2.40;1.60;;;;;;;17.19;46.75;104015.84;6120225;23;20162;-80
2023/02/07 14:57:00;;;;;;;2.22;1.60;;;;;;;17.18;46.90;104014.06;6126624;23;20040;-82
2023/02/07 14:59:40;;;;;;;1.63;1.45;;;;;;;17.19;46.89;104020.16;6126765;23;20005;-81
2023/02/07 15:02:34;;;;;;;2.33;1.63;;;;;;;17.18;46.75;104023.56;6151379;23;20009;-82
2023/02/07 15:05:12;;;;;;;;;;;;;;;17.17;46.64;104016.59;6127059;23;20093;-82
2023/02/07 15:07:39;;;;;;;2.20;1.60;;;;;;;17.16;46.68;104009.59;6126769;23;19980;-81
2023/02/07 15:10:26;;;;;;;2.67;1.80;;;;;;;17.16;46.73;104012.22;6102592;23;20006;-80
2023/02/07 15:12:53;;;;;;;2.30;1.70;;;;;;;17.14;46.70;104014.75;6151516;23;19998;-82
2023/02/07 15:15:33;;;;;;;2.47;1.60;;;;;;;17.15;46.67;104007.84;6128395;23;20334;-81
2023/02/07 15:18:01;;;;;;;2.28;1.63;;;;;;;17.15;46.81;104021.72;6126687;23;20002;-81
2023/02/07 15:20:32;;;;;;;1.70;1.30;;;;;;;17.15;46.84;104019.13;6126587;23;20080;-84
2023/02/07 15:22:59;;;;;;;2.78;1.65;;;;;;;17.16;46.85;104007.00;6126694;23;20084;-82
2023/02/07 15:25:26;;;;;;;1.65;1.50;;;;;;;17.16;46.94;104014.81;6102345;23;20387;-84
2023/02/07 15:28:19;;;;;;;1.67;1.40;;;;;;;17.17;46.86;104017.50;6104936;23;20010;-81
2023/02/07 15:31:06;;;;;;;2.28;1.27;;;;;;;17.18;47.02;104015.75;6172285;23;20021;-81
2023/02/07 15:33:36;;;;;;;1.90;1.50;;;;;;;17.19;46.93;104014.97;6168707;23;20001;-83
2023/02/07 15:36:25;;;;;;;2.28;1.60;;;;;;;17.19;47.04;104009.75;6146526;23;20012;-85
2023/02/07 15:38:51;;;;;;;1.75;1.27;;;;;;;17.19;46.94;104010.63;6135758;23;20006;-82
2023/02/07 15:41:16;;;;;;;2.35;1.50;;;;;;;17.21;46.93;104015.91;6104805;23;20450;-84
2023/02/07 15:44:03;;;;;;;2.45;1.55;;;;;;;17.21;46.92;104014.19;6129115;23;20490;-85
2023/02/07 15:46:47;;;;;;;2.85;1.58;;;;;;;17.22;46.81;104020.28;6152187;23;20029;-83
2023/02/07 15:49:42;;;;;;;2.08;1.45;;;;;;;17.21;47.03;104021.13;6128097;23;20082;-84
2023/02/07 15:52:10;;;;;;;2.30;1.50;;;;;;;17.22;46.76;104012.47;6078045;23;20017;-83
2023/02/07 15:54:39;;;;;;;2.20;1.40;;;;;;;17.21;46.88;104013.31;6151513;23;20053;-83
2023/02/07 15:57:12;;;;;;;7.65;1.50;;;;;;;17.20;47.02;104016.72;6127258;23;20013;-84
2023/02/07 15:59:40;;;;;;;1.67;1.25;;;;;;;17.21;47.00;104023.72;6151327;23;20017;-83
2023/02/07 16:02:21;;;;;;;2.63;1.38;;;;;;;17.21;46.76;104016.78;6126420;23;20002;-82
2023/02/07 16:04:46;;;;;;;2.00;1.30;;;;;;;17.21;46.81;104024.59;6126569;23;20088;-81
2023/02/07 16:07:12;;;;;;;2.13;1.30;;;;;;;17.21;47.07;104024.59;6102210;23;20038;-82
2023/02/07 16:09:39;;;;;;;3.30;1.40;;;;;;;17.21;46.92;104029.81;6126407;23;20002;-82
2023/02/07 16:12:26;;;;;;;1.63;1.05;;;;;;;17.22;46.81;104035.91;6128089;23;20029;-82
2023/02/07 16:14:51;;;;;;;2.53;1.33;;;;;;;17.22;46.89;104033.28;6151175;23;20132;-85
2023/02/07 16:17:22;;;;;;;1.48;1.08;;;;;;;17.20;47.04;104035.84;6102467;23;20379;-82
2023/02/07 16:19:47;;;;;;;1.67;1.35;;;;;;;17.20;47.06;104035.84;6150787;23;20014;-83
2023/02/07 16:22:20;;;;;;;2.45;1.40;;;;;;;17.20;47.16;104035.84;6101721;23;20028;-85
2023/02/07 16:24:48;;;;;;;1.90;1.20;;;;;;;17.20;47.13;104042.75;6127734;23;20014;-81
2023/02/07 16:27:30;;;;;;;1.30;1.20;;;;;;;17.21;47.12;104039.34;6126407;23;20041;-86
2023/02/07 16:29:58;;;;;;;2.15;1.23;;;;;;;17.20;47.07;104041.06;6126734;23;20088;-84
2023/02/07 16:32:27;;;;;;;3.67;1.52;;;;;;;17.19;47.04;104036.66;6126711;23;20447;-84
2023/02/07 16:34:52;;;;;;;2.13;1.27;;;;;;;17.18;46.91;104045.31;6150336;23;20009;-81
2023/02/07 16:37:18;;;;;;;1.77;1.30;;;;;;;17.17;46.96;104050.44;6077401;23;20110;-85
2023/02/07 16:39:43;;;;;;;1.55;1.35;;;;;;;17.15;47.02;104054.69;6126116;23;20006;-80
2023/02/07 16:42:14;;;;;;;1.88;1.25;;;;;;;17.15;47.26;104059.88;6101543;23;20006;-80
2023/02/07 16:44:39;;;;;;;1.48;1.10;;;;;;;17.13;47.05;104051.13;6126064;23;20494;-82
2023/02/07 16:47:05;;;;;;;1.80;1.40;;;;;;;17.11;47.04;104051.03;6125876;23;20088;-82
2023/02/07 16:49:31;;;;;;;2.78;1.40;;;;;;;17.11;47.25;104057.97;6077571;23;20006;-79
2023/02/07 16:51:57;;;;;;;1.95;1.50;;;;;;;17.09;47.28;104049.22;6125589;23;20014;-83
2023/02/07 16:54:22;;;;;;;2.42;1.40;;;;;;;17.09;47.06;104051.81;6125757;23;20022;-82
2023/02/07 16:56:55;;;;;;;2.00;1.40;;;;;;;17.09;47.04;104054.41;6125965;23;20005;-82
2023/02/07 16:59:21;;;;;;;1.40;1.15;;;;;;;17.08;47.31;104056.13;6125906;23;20093;-81
2023/02/07 17:01:49;;;;;;;1.80;1.35;;;;;;;17.08;47.33;104053.53;6126218;23;20012;-84
2023/02/07 17:04:15;;;;;;;2.28;1.50;;;;;;;17.06;47.21;104050.84;6152232;23;20002;-83
2023/02/07 17:06:41;;;;;;;2.35;1.55;;;;;;;17.06;47.31;104049.97;6127558;23;20053;-84
2023/02/07 17:09:16;;;;;;;2.20;1.40;;;;;;;17.05;47.07;104046.47;6127945;23;20347;-81
2023/02/07 17:11:41;;;;;;;2.75;1.30;;;;;;;17.05;47.25;104048.22;6152337;23;20088;-80
2023/02/07 17:14:07;;;;;;;3.03;1.60;;;;;;;17.05;47.32;104048.22;6103242;23;20033;-81
2023/02/07 17:16:32;;;;;;;1.92;1.20;;;;;;;17.04;47.36;104043.81;6103401;23;20033;-83
2023/02/07 17:18:58;;;;;;;2.08;1.50;;;;;;;17.03;47.20;104042.03;6103285;23;20016;-82
2023/02/07 17:21:23;;;;;;;1.58;1.13;;;;;;;17.03;47.43;104047.25;6079328;23;20084;-82
2023/02/07 17:23:49;;;;;;;2.55;1.70;;;;;;;17.02;47.41;104040.25;6128043;23;20029;-83
2023/02/07 17:26:21;;;;;;;2.75;1.77;;;;;;;17.01;47.49;104039.38;6152307;23;20005;-82
2023/02/07 17:28:47;;;;;;;1.90;1.42;;;;;;;17.01;47.61;104044.56;6127403;23;20332;-81
2023/02/07 17:31:12;;;;;;;3.00;1.58;;;;;;;17.00;47.36;104041.88;6127823;23;20048;-81
2023/02/07 17:33:38;;;;;;;1.95;1.45;;;;;;;16.99;47.28;104042.72;6103211;23;20010;-82
2023/02/07 17:36:04;;;;;;;1.75;1.40;;;;;;;16.98;47.44;104049.63;6127680;23;20013;-83
2023/02/07 17:38:30;;;;;;;1.73;1.30;;;;;;;16.98;47.40;104059.13;6103462;23;20010;-82
2023/02/07 17:40:55;;;;;;;1.90;1.38;;;;;;;16.99;47.47;104059.22;6103815;23;20009;-80
2023/02/07 17:43:20;;;;;;;2.28;1.40;;;;;;;16.99;47.35;104051.41;6079294;23;20439;-82
2023/02/07 17:45:46;;;;;;;2.22;1.63;;;;;;;17.00;47.45;104058.38;6128148;23;20006;-82
2023/02/07 17:48:11;;;;;;;1.98;1.50;;;;;;;17.01;47.19;104052.38;6103058;23;20013;-82
2023/02/07 17:50:39;;;;;;;2.47;1.60;;;;;;;17.01;47.18;104059.28;6127527;23;20346;-82
2023/02/07 17:53:07;;;;;;;4.00;1.70;;;;;;;16.98;47.37;104051.34;6127559;23;20462;-87
2023/02/07 17:55:34;;;;;;;3.03;1.48;;;;;;;16.95;47.17;104051.22;6104160;23;20010;-80
2023/02/07 17:57:59;;;;;;;3.50;1.77;;;;;;;16.92;47.35;104051.97;6128222;23;20116;-81
2023/02/07 18:00:28;;;;;;;3.15;1.52;;;;;;;16.91;47.26;104060.59;6103661;23;20010;-82
2023/02/07 18:02:54;;;;;;;3.42;1.60;;;;;;;16.90;47.39;104058.81;6128125;23;20006;-80
2023/02/07 18:05:20;;;;;;;6.53;1.60;;;;;;;16.90;47.43;104064.03;6127627;23;20089;-82
2023/02/07 18:07:47;;;;;;;3.40;1.58;;;;;;;16.89;47.24;104063.94;6133590;23;20010;-84
2023/02/07 18:10:19;;;;;;;2.97;1.85;;;;;;;16.88;47.56;104055.25;6150359;23;20033;-86
2023/02/07 18:12:45;;;;;;;2.63;1.92;;;;;;;16.86;47.44;104064.69;6174016;23;20050;-81
2023/02/07 18:15:11;;;;;;;3.78;2.67;;;;;;;16.88;47.45;104059.56;6147736;23;20065;-86
2023/02/07 18:17:37;;;;;;;5.38;2.75;;;;;;;16.88;47.53;104056.97;6083572;23;20009;-84
2023/02/07 18:20:05;;;;;;;5.80;3.95;;;;;;;16.86;47.30;104057.78;6104123;23;20010;-83
2023/02/07 18:22:31;;;;;;;5.95;3.67;;;;;;;16.87;47.53;104056.06;6128455;23;20077;-84
2023/02/07 18:24:56;;;;;;;6.60;4.05;;;;;;;16.88;47.68;104060.47;6104560;23;20541;-83
2023/02/07 18:27:22;;;;;;;6.95;4.13;;;;;;;16.86;47.86;104055.19;6105727;23;20048;-85
2023/02/07 18:29:47;;;;;;;8.52;4.05;;;;;;;16.87;47.80;104058.66;6128501;23;20012;-82
2023/02/07 18:32:12;;;;;;;7.57;3.97;;;;;;;16.88;47.75;104056.97;6127548;23;20013;-80
2023/02/07 18:34:39;;;;;;;6.13;3.70;;;;;;;16.87;47.53;104058.66;6129008;23;20014;-84
2023/02/07 18:37:04;;;;;;;6.18;3.88;;;;;;;16.89;48.01;104063.94;6127564;23;20016;-83
2023/02/07 18:39:30;;;;;;;5.78;3.70;;;;;;;16.88;47.86;104054.38;6103219;23;20077;-84
2023/02/07 18:41:55;;;;;;;6.05;3.88;;;;;;;16.88;47.91;104052.66;6103189;23;20434;-83
2023/02/07 18:44:21;;;;;;;5.45;3.67;;;;;;;16.89;48.03;104059.63;6126990;23;20010;-83
2023/02/07 18:46:46;;;;;;;6.88;4.20;;;;;;;16.90;48.04;104057.91;6152248;23;20006;-85
2023/02/07 18:49:12;;;;;;;7.65;5.10;;;;;;;16.90;48.02;104053.63;6152569;23;19990;-85
2023/02/07 18:51:38;;;;;;;10.40;5.47;;;;;;;16.93;47.97;104053.75;6127280;23;20021;-84
2023/02/07 18:54:04;;;;;;;11.75;7.10;;;;;;;16.94;48.07;104052.94;6102911;23;20024;-84
2023/02/07 18:56:29;;;;;;;13.02;7.70;;;;;;;16.94;48.27;104047.72;6102783;23;20041;-86
2023/02/07 18:58:55;;;;;;;15.50;8.05;;;;;;;16.97;48.72;104049.56;6079142;23;20005;-83
2023/02/07 19:01:24;;;;;;;13.73;7.93;;;;;;;16.98;48.62;104056.53;6127180;23;20013;-84
2023/02/07 19:03:53;;;;;;;15.90;8.05;;;;;;;16.98;48.85;104056.53;6127074;23;20357;-82
2023/02/07 19:06:22;;;;;;;14.43;7.80;;;;;;;16.98;49.25;104060.03;6102974;23;20010;-82
2023/02/07 19:08:48;;;;;;;11.50;7.70;;;;;;;16.98;49.18;104060.03;6127010;23;19998;-83
2023/02/07 19:11:14;;;;;;;12.77;7.72;;;;;;;16.97;49.25;104059.97;6079626;23;20093;-83
2023/02/07 19:13:39;;;;;;;12.27;7.53;;;;;;;16.96;49.50;104063.38;6126737;23;20009;-82
2023/02/07 19:16:11;;;;;;;12.10;7.32;;;;;;;16.93;49.71;104064.16;6126827;23;20008;-83
2023/02/07 19:18:37;;;;;;;12.68;7.57;;;;;;;16.91;49.70;104065.78;6128667;23;20010;-83
2023/02/07 19:21:09;;;;;;;12.88;7.05;;;;;;;16.90;49.68;104063.09;6151953;23;20052;-84
2023/02/07 19:23:35;;;;;;;15.48;6.95;;;;;;;16.88;49.82;104070.88;6126793;23;20017;-83
2023/02/07 19:26:01;;;;;;;10.20;6.80;;;;;;;16.86;49.88;104070.78;6126930;23;20009;-84
2023/02/07 19:28:26;;;;;;;9.32;6.22;;;;;;;16.85;49.73;104071.63;6128147;23;20312;-83
2023/02/07 19:30:52;;;;;;;13.07;6.90;;;;;;;16.83;49.74;104070.66;6101945;23;20010;-83
2023/02/07 19:33:17;;;;;;;11.82;6.65;;;;;;;16.82;49.65;104067.97;6102402;23;20097;-86
2023/02/07 19:35:43;;;;;;;10.55;6.65;;;;;;;16.82;49.80;104073.19;6102220;23;20037;-84
2023/02/07 19:38:08;;;;;;;11.15;7.45;;;;;;;16.81;49.87;104074.00;6126695;23;20002;-83
2023/02/07 19:40:34;;;;;;;9.98;6.30;;;;;;;16.79;49.91;104068.72;6126572;23;20020;-83
2023/02/07 19:42:59;;;;;;;9.40;6.55;;;;;;;16.80;49.76;104064.41;6102870;23;20088;-85
2023/02/07 19:45:25;;;;;;;9.40;6.65;;;;;;;16.79;49.84;104070.41;6078478;23;20034;-83
2023/02/07 19:47:51;;;;;;;10.20;6.68;;;;;;;16.77;49.83;104067.75;6127253;23;20033;-85
2023/02/07 19:50:17;;;;;;;8.90;6.18;;;;;;;16.77;49.66;104064.25;6126942;23;20018;-86
2023/02/07 19:52:42;;;;;;;10.43;6.10;;;;;;;16.75;49.59;104066.78;6102179;23;20025;-88
2023/02/07 19:55:08;;;;;;;8.15;5.60;;;;;;;16.75;49.70;104055.50;6101292;23;20020;-81
2023/02/07 19:57:34;;;;;;;9.40;6.25;;;;;;;16.74;49.72;104064.97;6077487;23;20001;-81
2023/02/07 19:59:59;;;;;;;8.45;5.78;;;;;;;16.74;49.69;104066.69;6101740;23;20002;-82
2023/02/07 20:02:25;;;;;;;8.82;6.05;;;;;;;16.74;49.55;104071.91;6077768;23;20017;-79
2023/02/07 20:04:53;;;;;;;8.85;5.78;;;;;;;16.73;49.79;104064.94;6101660;23;20014;-79
2023/02/07 20:07:21;;;;;;;9.65;5.95;;;;;;;16.73;49.92;104068.44;6127561;23;20025;-79
2023/02/07 20:09:47;;;;;;;11.05;6.30;;;;;;;16.73;50.02;104057.13;6101126;23;20366;-80
2023/02/07 20:12:12;;;;;;;8.52;5.85;;;;;;;16.72;49.85;104061.41;6078394;23;20089;-80
2023/02/07 20:14:38;;;;;;;11.02;6.43;;;;;;;16.72;50.01;104061.41;6101303;23;20006;-80
2023/02/07 20:17:04;;;;;;;11.02;5.80;;;;;;;16.72;49.90;104055.34;6101595;23;20148;-81
2023/02/07 20:19:29;;;;;;;11.57;5.97;;;;;;;16.71;49.75;104053.56;6125766;23;20025;-80
2023/02/07 20:21:55;;;;;;;9.57;5.78;;;;;;;16.70;49.82;104052.69;6101451;23;20033;-80
2023/02/07 20:24:20;;;;;;;8.90;5.90;;;;;;;16.70;50.00;104054.38;6127255;23;20010;-79
2023/02/07 20:26:45;;;;;;;8.90;6.05;;;;;;;16.70;50.14;104057.91;6101373;23;20006;-80
2023/02/07 20:29:14;;;;;;;9.25;6.40;;;;;;;16.70;49.72;104064.78;6101551;23;20391;-81
2023/02/07 20:31:40;;;;;;;8.80;6.15;;;;;;;16.69;49.83;104057.81;6125966;23;20084;-81
2023/02/07 20:34:07;;;;;;;7.65;5.80;;;;;;;16.68;50.05;104067.34;6127795;23;20006;-81
2023/02/07 20:36:39;;;;;;;9.15;5.70;;;;;;;16.67;49.93;104068.13;6083541;23;20010;-81
2023/02/07 20:39:05;;;;;;;7.70;5.68;;;;;;;16.65;49.88;104073.25;6141389;23;20005;-80
2023/02/07 20:41:34;;;;;;;9.68;6.22;;;;;;;16.66;49.99;104076.78;6114419;23;20014;-81
2023/02/07 20:44:05;;;;;;;8.27;6.13;;;;;;;16.66;49.79;104074.16;6063524;23;20009;-82
2023/02/07 20:46:33;;;;;;;7.38;5.45;;;;;;;16.65;49.98;104074.97;6128712;23;20006;-80
2023/02/07 20:49:01;;;;;;;9.00;6.00;;;;;;;16.64;49.95;104079.28;6104862;23;20002;-80
2023/02/07 20:51:28;;;;;;;8.15;5.90;;;;;;;16.64;49.72;104075.81;6130210;23;20053;-80
2023/02/07 20:53:58;;;;;;;8.77;5.80;;;;;;;16.63;49.92;104074.00;6084721;23;20026;-79
2023/02/07 20:56:25;;;;;;;8.55;5.68;;;;;;;16.63;49.92;104074.00;6107800;23;20021;-80
2023/02/07 20:58:51;;;;;;;8.40;5.75;;;;;;;16.62;49.69;104078.34;6128557;23;20053;-82
2023/02/07 21:01:22;;;;;;;8.43;5.80;;;;;;;16.61;49.51;104075.66;6152748;23;20013;-79